sensor_id;sensor_type;location;lat;lon;timestamp;pressure;altitude;pressure_sealevel;temperature;humidity
33625;BME280;19962;47.820;1.930;2023-08-31T00:01:01;100181.50;;;17.57;84.89
33625;BME280;19962;47.820;1.930;2023-08-31T00:03:30;100183.72;;;17.55;84.60
33625;BME280;19962;47.820;1.930;2023-08-31T00:05:56;100181.53;;;17.52;85.01
33625;BME280;19962;47.820;1.930;2023-08-31T00:08:22;100178.16;;;17.55;84.93
33625;BME280;19962;47.820;1.930;2023-08-31T00:10:59;100186.47;;;17.55;84.84
33625;BME280;19962;47.820;1.930;2023-08-31T00:13:26;100180.41;;;17.53;84.96
33625;BME280;19962;47.820;1.930;2023-08-31T00:15:55;100184.84;;;17.54;84.71
33625;BME280;19962;47.820;1.930;2023-08-31T00:18:26;100185.94;;;17.53;84.90
33625;BME280;19962;47.820;1.930;2023-08-31T00:20:52;100184.31;;;17.52;84.85
33625;BME280;19962;47.820;1.930;2023-08-31T00:23:18;100189.25;;;17.55;84.57
33625;BME280;19962;47.820;1.930;2023-08-31T00:25:45;100200.34;;;17.55;84.54
33625;BME280;19962;47.820;1.930;2023-08-31T00:28:14;100193.75;;;17.51;84.84
33625;BME280;19962;47.820;1.930;2023-08-31T00:30:42;100195.41;;;17.52;84.82
33625;BME280;19962;47.820;1.930;2023-08-31T00:33:08;100205.91;;;17.55;84.70
33625;BME280;19962;47.820;1.930;2023-08-31T00:35:34;100198.69;;;17.54;84.75
33625;BME280;19962;47.820;1.930;2023-08-31T00:38:00;100203.72;;;17.52;84.78
33625;BME280;19962;47.820;1.930;2023-08-31T00:40:27;100204.28;;;17.49;84.63
33625;BME280;19962;47.820;1.930;2023-08-31T00:43:05;100199.84;;;17.48;85.00
33625;BME280;19962;47.820;1.930;2023-08-31T00:45:33;100202.34;;;17.50;84.74
33625;BME280;19962;47.820;1.930;2023-08-31T00:48:00;100205.94;;;17.50;84.66
33625;BME280;19962;47.820;1.930;2023-08-31T00:50:27;100204.28;;;17.49;84.67
33625;BME280;19962;47.820;1.930;2023-08-31T00:52:53;100197.31;;;17.52;84.60
33625;BME280;19962;47.820;1.930;2023-08-31T00:55:19;100196.81;;;17.45;84.77
33625;BME280;19962;47.820;1.930;2023-08-31T00:57:45;100194.31;;;17.43;85.06
33625;BME280;19962;47.820;1.930;2023-08-31T01:00:12;100186.56;;;17.40;84.93
33625;BME280;19962;47.820;1.930;2023-08-31T01:03:05;100195.13;;;17.38;84.99
33625;BME280;19962;47.820;1.930;2023-08-31T01:06:27;100185.44;;;17.41;84.87
33625;BME280;19962;47.820;1.930;2023-08-31T01:11:55;100182.13;;;17.34;84.96
33625;BME280;19962;47.820;1.930;2023-08-31T01:14:28;100174.94;;;17.33;85.06
33625;BME280;19962;47.820;1.930;2023-08-31T01:16:58;100178.22;;;17.35;84.73
33625;BME280;19962;47.820;1.930;2023-08-31T01:19:50;100172.13;;;17.38;84.57
33625;BME280;19962;47.820;1.930;2023-08-31T01:22:46;100173.78;;;17.39;84.57
33625;BME280;19962;47.820;1.930;2023-08-31T01:25:14;100171.31;;;17.32;84.70
33625;BME280;19962;47.820;1.930;2023-08-31T01:27:41;100176.88;;;17.32;84.93
33625;BME280;19962;47.820;1.930;2023-08-31T01:30:07;100183.53;;;17.31;85.12
33625;BME280;19962;47.820;1.930;2023-08-31T01:32:34;100182.44;;;17.27;85.20
33625;BME280;19962;47.820;1.930;2023-08-31T01:35:02;100191.56;;;17.23;85.23
33625;BME280;19962;47.820;1.930;2023-08-31T01:37:44;100187.16;;;17.17;85.37
33625;BME280;19962;47.820;1.930;2023-08-31T01:40:15;100190.47;;;17.19;85.02
33625;BME280;19962;47.820;1.930;2023-08-31T01:42:44;100204.91;;;17.21;85.05
33625;BME280;19962;47.820;1.930;2023-08-31T01:45:15;100204.94;;;17.16;85.57
33625;BME280;19962;47.820;1.930;2023-08-31T01:47:43;100203.81;;;17.17;85.48
33625;BME280;19962;47.820;1.930;2023-08-31T01:50:09;100208.78;;;17.25;85.24
33625;BME280;19962;47.820;1.930;2023-08-31T01:52:37;100200.47;;;17.25;85.26
33625;BME280;19962;47.820;1.930;2023-08-31T01:55:04;100203.50;;;17.23;85.40
33625;BME280;19962;47.820;1.930;2023-08-31T01:57:31;100206.28;;;17.23;85.23
33625;BME280;19962;47.820;1.930;2023-08-31T01:59:57;100203.50;;;17.23;85.28
33625;BME280;19962;47.820;1.930;2023-08-31T02:02:24;100199.91;;;17.23;85.25
33625;BME280;19962;47.820;1.930;2023-08-31T02:04:50;100202.66;;;17.23;85.28
33625;BME280;19962;47.820;1.930;2023-08-31T02:07:17;100206.53;;;17.27;85.18
33625;BME280;19962;47.820;1.930;2023-08-31T02:09:44;100200.16;;;17.31;84.71
33625;BME280;19962;47.820;1.930;2023-08-31T02:12:10;100206.50;;;17.32;84.65
33625;BME280;19962;47.820;1.930;2023-08-31T02:14:36;100202.66;;;17.23;84.81
33625;BME280;19962;47.820;1.930;2023-08-31T02:17:04;100197.72;;;17.20;85.02
33625;BME280;19962;47.820;1.930;2023-08-31T02:19:30;100195.47;;;17.22;85.03
33625;BME280;19962;47.820;1.930;2023-08-31T02:21:56;100199.63;;;17.24;84.85
33625;BME280;19962;47.820;1.930;2023-08-31T02:24:22;100200.47;;;17.25;84.75
33625;BME280;19962;47.820;1.930;2023-08-31T02:26:49;100194.06;;;17.24;84.76
33625;BME280;19962;47.820;1.930;2023-08-31T02:29:15;100199.91;;;17.23;84.91
33625;BME280;19962;47.820;1.930;2023-08-31T02:31:41;100193.25;;;17.24;84.76
33625;BME280;19962;47.820;1.930;2023-08-31T02:34:07;100181.59;;;17.27;84.41
33625;BME280;19962;47.820;1.930;2023-08-31T02:36:33;100182.97;;;17.24;84.67
33625;BME280;19962;47.820;1.930;2023-08-31T02:39:00;100184.94;;;17.24;84.71
33625;BME280;19962;47.820;1.930;2023-08-31T02:41:26;100187.16;;;17.22;84.55
33625;BME280;19962;47.820;1.930;2023-08-31T02:43:52;100180.47;;;17.23;84.43
33625;BME280;19962;47.820;1.930;2023-08-31T02:46:18;100186.63;;;17.20;84.25
33625;BME280;19962;47.820;1.930;2023-08-31T02:48:45;100174.97;;;17.18;84.60
33625;BME280;19962;47.820;1.930;2023-08-31T02:51:11;100173.84;;;17.19;84.69
33625;BME280;19962;47.820;1.930;2023-08-31T02:53:38;100190.47;;;17.19;84.54
33625;BME280;19962;47.820;1.930;2023-08-31T02:56:04;100180.22;;;17.19;84.49
33625;BME280;19962;47.820;1.930;2023-08-31T02:58:30;100188.28;;;17.21;84.35
33625;BME280;19962;47.820;1.930;2023-08-31T03:01:10;100196.03;;;17.24;84.57
33625;BME280;19962;47.820;1.930;2023-08-31T03:03:40;100194.63;;;17.21;84.35
33625;BME280;19962;47.820;1.930;2023-08-31T03:06:07;100186.06;;;17.18;84.30
33625;BME280;19962;47.820;1.930;2023-08-31T03:08:35;100180.22;;;17.19;84.64
33625;BME280;19962;47.820;1.930;2023-08-31T03:11:03;100187.72;;;17.19;84.69
33625;BME280;19962;47.820;1.930;2023-08-31T03:13:30;100184.69;;;17.15;84.77
33625;BME280;19962;47.820;1.930;2023-08-31T03:15:56;100181.38;;;17.13;84.99
33625;BME280;19962;47.820;1.930;2023-08-31T03:18:23;100183.84;;;17.15;84.95
33625;BME280;19962;47.820;1.930;2023-08-31T03:20:49;100190.47;;;17.19;85.02
33625;BME280;19962;47.820;1.930;2023-08-31T03:23:15;100198.25;;;17.22;84.63
33625;BME280;19962;47.820;1.930;2023-08-31T03:25:42;100194.06;;;17.24;84.56
33625;BME280;19962;47.820;1.930;2023-08-31T03:28:08;100207.66;;;17.26;84.65
33625;BME280;19962;47.820;1.930;2023-08-31T03:30:35;100201.84;;;17.22;84.56
33625;BME280;19962;47.820;1.930;2023-08-31T03:33:02;100197.41;;;17.21;84.48
33625;BME280;19962;47.820;1.930;2023-08-31T03:35:28;100191.03;;;17.21;84.63
33625;BME280;19962;47.820;1.930;2023-08-31T03:37:55;100186.31;;;17.16;84.86
33625;BME280;19962;47.820;1.930;2023-08-31T03:40:21;100184.94;;;17.19;84.78
33625;BME280;19962;47.820;1.930;2023-08-31T03:42:51;100188.81;;;17.23;84.68
33625;BME280;19962;47.820;1.930;2023-08-31T03:45:20;100179.69;;;17.22;84.77
33625;BME280;19962;47.820;1.930;2023-08-31T03:47:46;100181.31;;;17.23;84.60
33625;BME280;19962;47.820;1.930;2023-08-31T03:50:12;100184.38;;;17.22;84.57
33625;BME280;19962;47.820;1.930;2023-08-31T03:52:38;100192.16;;;17.20;84.81
33625;BME280;19962;47.820;1.930;2023-08-31T03:55:04;100191.31;;;17.19;84.76
33625;BME280;19962;47.820;1.930;2023-08-31T03:57:31;100187.16;;;17.17;84.79
33625;BME280;19962;47.820;1.930;2023-08-31T03:59:57;100188.00;;;17.12;85.08
33625;BME280;19962;47.820;1.930;2023-08-31T04:02:23;100189.13;;;17.11;85.33
33625;BME280;19962;47.820;1.930;2023-08-31T04:04:50;100191.06;;;17.16;85.14
33625;BME280;19962;47.820;1.930;2023-08-31T04:07:16;100193.28;;;17.14;84.92
33625;BME280;19962;47.820;1.930;2023-08-31T04:09:42;100201.31;;;17.15;85.25
33625;BME280;19962;47.820;1.930;2023-08-31T04:12:08;100198.53;;;17.15;85.15
33625;BME280;19962;47.820;1.930;2023-08-31T04:14:34;100202.16;;;17.16;85.03
33625;BME280;19962;47.820;1.930;2023-08-31T04:17:00;100202.16;;;17.16;84.95
33625;BME280;19962;47.820;1.930;2023-08-31T04:19:26;100204.34;;;17.14;84.96
33625;BME280;19962;47.820;1.930;2023-08-31T04:21:52;100204.09;;;17.10;85.03
33625;BME280;19962;47.820;1.930;2023-08-31T04:24:18;100206.59;;;17.07;85.17
33625;BME280;19962;47.820;1.930;2023-08-31T04:26:44;100215.47;;;17.04;85.31
33625;BME280;19962;47.820;1.930;2023-08-31T04:29:11;100214.94;;;17.02;85.30
33625;BME280;19962;47.820;1.930;2023-08-31T04:31:37;100208.56;;;16.96;85.54
33625;BME280;19962;47.820;1.930;2023-08-31T04:34:04;100205.53;;;16.93;85.54
33625;BME280;19962;47.820;1.930;2023-08-31T04:36:30;100212.19;;;16.87;85.63
33625;BME280;19962;47.820;1.930;2023-08-31T04:38:56;100213.03;;;16.82;85.61
33625;BME280;19962;47.820;1.930;2023-08-31T04:41:22;100208.59;;;16.76;85.85
33625;BME280;19962;47.820;1.930;2023-08-31T04:43:48;100219.41;;;16.73;86.31
33625;BME280;19962;47.820;1.930;2023-08-31T04:46:15;100216.63;;;16.73;86.44
33625;BME280;19962;47.820;1.930;2023-08-31T04:48:41;100224.38;;;16.66;86.89
33625;BME280;19962;47.820;1.930;2023-08-31T04:51:09;100226.34;;;16.65;86.90
33625;BME280;19962;47.820;1.930;2023-08-31T04:53:35;100228.25;;;16.65;86.80
33625;BME280;19962;47.820;1.930;2023-08-31T04:56:01;100242.09;;;16.65;86.91
33625;BME280;19962;47.820;1.930;2023-08-31T04:58:27;100240.19;;;16.65;86.70
33625;BME280;19962;47.820;1.930;2023-08-31T05:00:53;100231.03;;;16.65;86.63
33625;BME280;19962;47.820;1.930;2023-08-31T05:03:20;100237.41;;;16.65;86.65
33625;BME280;19962;47.820;1.930;2023-08-31T05:05:46;100242.69;;;16.62;86.57
33625;BME280;19962;47.820;1.930;2023-08-31T05:08:12;100228.53;;;16.63;86.85
33625;BME280;19962;47.820;1.930;2023-08-31T05:10:38;100235.19;;;16.62;86.75
33625;BME280;19962;47.820;1.930;2023-08-31T05:13:05;100245.16;;;16.63;87.04
33625;BME280;19962;47.820;1.930;2023-08-31T05:15:31;100244.59;;;16.66;86.90
33625;BME280;19962;47.820;1.930;2023-08-31T05:17:59;100245.72;;;16.70;86.92
33625;BME280;19962;47.820;1.930;2023-08-31T05:20:25;100249.03;;;16.72;86.55
33625;BME280;19962;47.820;1.930;2023-08-31T05:22:51;100250.13;;;16.71;86.79
33625;BME280;19962;47.820;1.930;2023-08-31T05:25:18;100259.84;;;16.74;86.79
33625;BME280;19962;47.820;1.930;2023-08-31T05:27:44;100263.19;;;16.76;86.47
33625;BME280;19962;47.820;1.930;2023-08-31T05:30:10;100263.19;;;16.76;86.65
33625;BME280;19962;47.820;1.930;2023-08-31T05:32:37;100260.69;;;16.74;86.76
33625;BME280;19962;47.820;1.930;2023-08-31T05:35:04;100262.31;;;16.80;86.81
33625;BME280;19962;47.820;1.930;2023-08-31T05:37:34;100261.50;;;16.85;86.68
33625;BME280;19962;47.820;1.930;2023-08-31T05:40:02;100252.09;;;16.86;86.33
33625;BME280;19962;47.820;1.930;2023-08-31T05:42:32;100255.38;;;16.88;86.48
33625;BME280;19962;47.820;1.930;2023-08-31T05:44:58;100266.47;;;16.88;86.25
33625;BME280;19962;47.820;1.930;2023-08-31T05:47:24;100259.00;;;16.88;86.17
33625;BME280;19962;47.820;1.930;2023-08-31T05:49:50;100269.28;;;16.93;86.13
33625;BME280;19962;47.820;1.930;2023-08-31T05:52:17;100264.25;;;16.95;85.88
33625;BME280;19962;47.820;1.930;2023-08-31T05:54:43;100258.97;;;16.98;85.73
33625;BME280;19962;47.820;1.930;2023-08-31T05:57:09;100273.41;;;16.95;86.10
33625;BME280;19962;47.820;1.930;2023-08-31T05:59:35;100272.56;;;16.95;86.07
33625;BME280;19962;47.820;1.930;2023-08-31T06:02:01;100278.13;;;16.95;86.10
33625;BME280;19962;47.820;1.930;2023-08-31T06:04:29;100277.56;;;16.98;86.05
33625;BME280;19962;47.820;1.930;2023-08-31T06:06:55;100283.66;;;16.95;86.32
33625;BME280;19962;47.820;1.930;2023-08-31T06:09:21;100278.97;;;16.95;86.19
33625;BME280;19962;47.820;1.930;2023-08-31T06:11:47;100294.19;;;16.98;86.23
33625;BME280;19962;47.820;1.930;2023-08-31T06:14:13;100296.13;;;17.02;86.05
33625;BME280;19962;47.820;1.930;2023-08-31T06:16:39;100296.38;;;17.06;85.80
33625;BME280;19962;47.820;1.930;2023-08-31T06:19:05;100295.31;;;17.07;85.73
33625;BME280;19962;47.820;1.930;2023-08-31T06:21:31;100299.72;;;17.08;85.46
33625;BME280;19962;47.820;1.930;2023-08-31T06:23:58;100293.34;;;17.07;85.71
33625;BME280;19962;47.820;1.930;2023-08-31T06:26:24;100287.53;;;17.09;85.60
33625;BME280;19962;47.820;1.930;2023-08-31T06:28:50;100281.97;;;17.14;85.28
33625;BME280;19962;47.820;1.930;2023-08-31T06:31:16;100290.84;;;17.16;84.95
33625;BME280;19962;47.820;1.930;2023-08-31T06:33:42;100289.16;;;17.15;85.17
33625;BME280;19962;47.820;1.930;2023-08-31T06:36:09;100284.19;;;17.17;85.01
33625;BME280;19962;47.820;1.930;2023-08-31T06:38:35;100278.34;;;17.23;84.51
33625;BME280;19962;47.820;1.930;2023-08-31T06:41:02;100285.56;;;17.24;84.57
33625;BME280;19962;47.820;1.930;2023-08-31T06:43:28;100285.28;;;17.26;84.59
33625;BME280;19962;47.820;1.930;2023-08-31T06:45:54;100279.75;;;17.26;84.64
33625;BME280;19962;47.820;1.930;2023-08-31T06:48:20;100279.72;;;17.31;84.52
33625;BME280;19962;47.820;1.930;2023-08-31T06:50:47;100284.16;;;17.32;84.42
33625;BME280;19962;47.820;1.930;2023-08-31T06:53:13;100287.22;;;17.35;84.19
33625;BME280;19962;47.820;1.930;2023-08-31T06:55:39;100293.59;;;17.41;83.73
33625;BME280;19962;47.820;1.930;2023-08-31T06:58:05;100292.50;;;17.47;83.54
33625;BME280;19962;47.820;1.930;2023-08-31T07:00:32;100294.69;;;17.50;83.30
33625;BME280;19962;47.820;1.930;2023-08-31T07:02:58;100293.31;;;17.48;83.39
33625;BME280;19962;47.820;1.930;2023-08-31T07:05:26;100299.97;;;17.47;83.56
33625;BME280;19962;47.820;1.930;2023-08-31T07:07:55;100300.53;;;17.49;83.81
33625;BME280;19962;47.820;1.930;2023-08-31T07:10:22;100309.09;;;17.57;83.61
33625;BME280;19962;47.820;1.930;2023-08-31T07:12:48;100307.41;;;17.66;83.19
33625;BME280;19962;47.820;1.930;2023-08-31T07:15:15;100304.06;;;17.74;82.53
33625;BME280;19962;47.820;1.930;2023-08-31T07:17:41;100305.97;;;17.74;82.49
33625;BME280;19962;47.820;1.930;2023-08-31T07:20:08;100305.72;;;17.75;82.59
33625;BME280;19962;47.820;1.930;2023-08-31T07:22:35;100319.84;;;17.74;82.45
33625;BME280;19962;47.820;1.930;2023-08-31T07:25:02;100315.69;;;17.76;82.72
33625;BME280;19962;47.820;1.930;2023-08-31T07:27:29;100314.56;;;17.77;82.96
33625;BME280;19962;47.820;1.930;2023-08-31T07:29:55;100322.59;;;17.79;83.00
33625;BME280;19962;47.820;1.930;2023-08-31T07:32:22;100325.09;;;17.80;82.85
33625;BME280;19962;47.820;1.930;2023-08-31T07:34:48;100332.91;;;17.78;82.85
33625;BME280;19962;47.820;1.930;2023-08-31T07:37:14;100329.00;;;17.79;82.70
33625;BME280;19962;47.820;1.930;2023-08-31T07:39:40;100332.06;;;17.78;82.76
33625;BME280;19962;47.820;1.930;2023-08-31T07:42:06;100332.28;;;17.86;82.66
33625;BME280;19962;47.820;1.930;2023-08-31T07:44:32;100318.97;;;17.88;82.80
33625;BME280;19962;47.820;1.930;2023-08-31T07:46:59;100320.59;;;17.94;82.35
33625;BME280;19962;47.820;1.930;2023-08-31T07:49:25;100322.25;;;17.95;82.31
33625;BME280;19962;47.820;1.930;2023-08-31T07:51:51;100318.41;;;17.96;82.42
33625;BME280;19962;47.820;1.930;2023-08-31T07:54:21;100314.50;;;17.97;82.33
33625;BME280;19962;47.820;1.930;2023-08-31T07:56:48;100321.44;;;17.95;82.25
33625;BME280;19962;47.820;1.930;2023-08-31T07:59:14;100314.78;;;17.96;82.40
33625;BME280;19962;47.820;1.930;2023-08-31T08:01:41;100321.41;;;18.05;82.31
33625;BME280;19962;47.820;1.930;2023-08-31T08:04:07;100317.22;;;18.07;82.49
33625;BME280;19962;47.820;1.930;2023-08-31T08:06:33;100309.44;;;18.14;82.47
33625;BME280;19962;47.820;1.930;2023-08-31T08:08:59;100307.44;;;18.25;82.30
33625;BME280;19962;47.820;1.930;2023-08-31T08:11:25;100304.03;;;18.33;81.77
33625;BME280;19962;47.820;1.930;2023-08-31T08:13:51;100310.41;;;18.38;81.70
33625;BME280;19962;47.820;1.930;2023-08-31T08:16:17;100319.28;;;18.45;81.62
33625;BME280;19962;47.820;1.930;2023-08-31T08:18:44;100311.75;;;18.46;81.33
33625;BME280;19962;47.820;1.930;2023-08-31T08:21:10;100322.84;;;18.51;81.50
33625;BME280;19962;47.820;1.930;2023-08-31T08:23:36;100319.78;;;18.52;81.46
33625;BME280;19962;47.820;1.930;2023-08-31T08:26:02;100322.22;;;18.59;81.66
33625;BME280;19962;47.820;1.930;2023-08-31T08:28:28;100325.50;;;18.71;81.28
33625;BME280;19962;47.820;1.930;2023-08-31T08:30:54;100330.69;;;18.82;81.16
33625;BME280;19962;47.820;1.930;2023-08-31T08:33:20;100334.00;;;18.84;81.10
33625;BME280;19962;47.820;1.930;2023-08-31T08:35:47;100339.03;;;18.82;81.26
33625;BME280;19962;47.820;1.930;2023-08-31T08:38:13;100341.22;;;18.85;81.46
33625;BME280;19962;47.820;1.930;2023-08-31T08:40:39;100349.81;;;18.89;81.56
33625;BME280;19962;47.820;1.930;2023-08-31T08:43:07;100356.97;;;18.95;81.20
33625;BME280;19962;47.820;1.930;2023-08-31T08:45:38;100358.66;;;18.96;81.11
33625;BME280;19962;47.820;1.930;2023-08-31T08:48:08;100356.19;;;18.94;81.10
33625;BME280;19962;47.820;1.930;2023-08-31T08:50:36;100358.31;;;19.02;80.93
33625;BME280;19962;47.820;1.930;2023-08-31T08:53:05;100349.88;;;19.17;80.35
33625;BME280;19962;47.820;1.930;2023-08-31T08:55:32;100352.66;;;19.17;80.67
33625;BME280;19962;47.820;1.930;2023-08-31T08:58:00;100358.53;;;19.11;80.99
33625;BME280;19962;47.820;1.930;2023-08-31T09:00:26;100357.97;;;19.14;80.75
33625;BME280;19962;47.820;1.930;2023-08-31T09:02:53;100356.50;;;19.21;80.53
33625;BME280;19962;47.820;1.930;2023-08-31T09:05:20;100354.84;;;19.20;80.65
33625;BME280;19962;47.820;1.930;2023-08-31T09:08:15;100345.38;;;19.21;80.93
33625;BME280;19962;47.820;1.930;2023-08-31T09:10:45;100349.78;;;19.27;80.33
33625;BME280;19962;47.820;1.930;2023-08-31T09:13:14;100344.19;;;19.32;80.34
33625;BME280;19962;47.820;1.930;2023-08-31T09:15:48;100345.03;;;19.33;80.64
33625;BME280;19962;47.820;1.930;2023-08-31T09:18:24;100336.41;;;19.34;80.61
33625;BME280;19962;47.820;1.930;2023-08-31T09:20:51;100340.81;;;19.35;80.25
33625;BME280;19962;47.820;1.930;2023-08-31T09:23:18;100333.78;;;19.43;80.20
33625;BME280;19962;47.820;1.930;2023-08-31T09:25:49;100336.88;;;19.41;80.31
33625;BME280;19962;47.820;1.930;2023-08-31T09:28:17;100337.88;;;19.50;80.34
33625;BME280;19962;47.820;1.930;2023-08-31T09:30:47;100331.81;;;19.48;80.77
33625;BME280;19962;47.820;1.930;2023-08-31T09:33:15;100330.63;;;19.54;80.62
33625;BME280;19962;47.820;1.930;2023-08-31T09:35:51;100324.25;;;19.54;79.76
33625;BME280;19962;47.820;1.930;2023-08-31T09:38:18;100326.69;;;19.55;79.79
33625;BME280;19962;47.820;1.930;2023-08-31T09:40:45;100331.47;;;19.55;79.65
33625;BME280;19962;47.820;1.930;2023-08-31T09:43:11;100324.84;;;19.74;79.22
33625;BME280;19962;47.820;1.930;2023-08-31T09:45:37;100321.38;;;19.82;78.56
33625;BME280;19962;47.820;1.930;2023-08-31T09:48:05;100325.00;;;19.83;78.14
33625;BME280;19962;47.820;1.930;2023-08-31T09:50:32;100322.16;;;19.88;77.66
33625;BME280;19962;47.820;1.930;2023-08-31T09:53:03;100322.94;;;19.93;77.92
33625;BME280;19962;47.820;1.930;2023-08-31T09:55:31;100323.78;;;19.94;77.41
33625;BME280;19962;47.820;1.930;2023-08-31T09:58:01;100316.59;;;19.88;77.72
33625;BME280;19962;47.820;1.930;2023-08-31T10:00:30;100325.31;;;19.81;78.18
33625;BME280;19962;47.820;1.930;2023-08-31T10:03:00;100316.50;;;19.74;78.55
33625;BME280;19962;47.820;1.930;2023-08-31T10:05:26;100316.66;;;19.83;78.14
33625;BME280;19962;47.820;1.930;2023-08-31T10:07:53;100320.88;;;19.80;78.20
33625;BME280;19962;47.820;1.930;2023-08-31T10:10:19;100321.09;;;19.60;78.92
33625;BME280;19962;47.820;1.930;2023-08-31T10:12:49;100319.72;;;19.58;79.36
33625;BME280;19962;47.820;1.930;2023-08-31T10:15:16;100315.84;;;19.59;79.29
33625;BME280;19962;47.820;1.930;2023-08-31T10:17:42;100308.84;;;19.61;79.30
33625;BME280;19962;47.820;1.930;2023-08-31T10:20:12;100309.25;;;19.73;79.27
33625;BME280;19962;47.820;1.930;2023-08-31T10:22:39;100309.22;;;19.78;79.29
33625;BME280;19962;47.820;1.930;2023-08-31T10:25:06;100310.16;;;19.92;78.81
33625;BME280;19962;47.820;1.930;2023-08-31T10:27:43;100312.69;;;19.89;79.46
33625;BME280;19962;47.820;1.930;2023-08-31T10:35:48;100296.75;;;19.94;79.67
33625;BME280;19962;47.820;1.930;2023-08-31T10:38:16;100292.16;;;20.03;79.47
33625;BME280;19962;47.820;1.930;2023-08-31T10:40:49;100290.53;;;20.02;80.08
33625;BME280;19962;47.820;1.930;2023-08-31T10:43:25;100288.31;;;19.99;80.94
33625;BME280;19962;47.820;1.930;2023-08-31T10:45:51;100291.19;;;19.94;81.42
33625;BME280;19962;47.820;1.930;2023-08-31T10:48:18;100286.44;;;19.95;81.25
33625;BME280;19962;47.820;1.930;2023-08-31T10:50:45;100287.81;;;19.97;81.49
33625;BME280;19962;47.820;1.930;2023-08-31T10:53:13;100289.47;;;19.98;81.76
33625;BME280;19962;47.820;1.930;2023-08-31T10:55:52;100287.94;;;19.87;82.74
33625;BME280;19962;47.820;1.930;2023-08-31T10:58:21;100282.59;;;19.91;82.41
33625;BME280;19962;47.820;1.930;2023-08-31T11:00:57;100291.91;;;19.81;83.39
33625;BME280;19962;47.820;1.930;2023-08-31T11:03:23;100274.38;;;19.81;84.38
33625;BME280;19962;47.820;1.930;2023-08-31T11:05:53;100275.59;;;19.93;84.29
33625;BME280;19962;47.820;1.930;2023-08-31T11:08:25;100277.13;;;20.04;84.35
33625;BME280;19962;47.820;1.930;2023-08-31T11:10:53;100277.47;;;19.98;84.84
33625;BME280;19962;47.820;1.930;2023-08-31T11:13:19;100267.53;;;19.92;85.76
33625;BME280;19962;47.820;1.930;2023-08-31T11:15:47;100266.78;;;19.86;86.15
33625;BME280;19962;47.820;1.930;2023-08-31T11:18:13;100261.81;;;19.83;87.24
33625;BME280;19962;47.820;1.930;2023-08-31T11:20:44;100268.81;;;19.81;87.60
33625;BME280;19962;47.820;1.930;2023-08-31T11:23:10;100264.59;;;19.83;88.02
33625;BME280;19962;47.820;1.930;2023-08-31T11:25:37;100265.34;;;19.89;87.61
33625;BME280;19962;47.820;1.930;2023-08-31T11:28:05;100261.13;;;19.73;89.55
33625;BME280;19962;47.820;1.930;2023-08-31T11:30:33;100267.16;;;19.56;90.58
33625;BME280;19962;47.820;1.930;2023-08-31T11:33:06;100262.47;;;19.52;91.69
33625;BME280;19962;47.820;1.930;2023-08-31T11:35:38;100253.69;;;19.63;90.56
33625;BME280;19962;47.820;1.930;2023-08-31T11:38:07;100252.22;;;19.71;90.22
33625;BME280;19962;47.820;1.930;2023-08-31T11:40:33;100251.13;;;19.72;90.24
33625;BME280;19962;47.820;1.930;2023-08-31T11:42:59;100248.78;;;19.79;90.25
33625;BME280;19962;47.820;1.930;2023-08-31T11:45:26;100244.72;;;19.71;91.49
33625;BME280;19962;47.820;1.930;2023-08-31T11:47:53;100247.41;;;19.76;91.43
33625;BME280;19962;47.820;1.930;2023-08-31T11:50:20;100243.00;;;19.75;91.97
33625;BME280;19962;47.820;1.930;2023-08-31T11:52:47;100242.75;;;19.72;92.19
33625;BME280;19962;47.820;1.930;2023-08-31T11:55:15;100255.31;;;19.69;93.02
33625;BME280;19962;47.820;1.930;2023-08-31T11:57:53;100250.16;;;19.58;94.19
33625;BME280;19962;47.820;1.930;2023-08-31T12:00:23;100258.75;;;19.61;93.70
33625;BME280;19962;47.820;1.930;2023-08-31T12:02:59;100247.19;;;19.49;95.03
33625;BME280;19962;47.820;1.930;2023-08-31T12:05:26;100249.97;;;19.49;95.28
33625;BME280;19962;47.820;1.930;2023-08-31T12:07:54;100248.34;;;19.48;95.70
33625;BME280;19962;47.820;1.930;2023-08-31T12:10:20;100254.25;;;19.42;96.85
33625;BME280;19962;47.820;1.930;2023-08-31T12:12:47;100257.47;;;19.54;96.18
33625;BME280;19962;47.820;1.930;2023-08-31T12:15:13;100247.38;;;19.58;95.40
33625;BME280;19962;47.820;1.930;2023-08-31T12:17:39;100257.91;;;19.61;95.09
33625;BME280;19962;47.820;1.930;2023-08-31T12:20:06;100247.69;;;19.56;95.67
33625;BME280;19962;47.820;1.930;2023-08-31T12:22:32;100253.53;;;19.55;95.74
33625;BME280;19962;47.820;1.930;2023-08-31T12:24:58;100250.22;;;19.53;96.41
33625;BME280;19962;47.820;1.930;2023-08-31T12:27:25;100247.56;;;19.43;97.23
33625;BME280;19962;47.820;1.930;2023-08-31T12:29:52;100249.97;;;19.49;96.85
33625;BME280;19962;47.820;1.930;2023-08-31T12:32:18;100243.53;;;19.54;96.86
33625;BME280;19962;47.820;1.930;2023-08-31T12:34:44;100247.38;;;19.58;96.31
33625;BME280;19962;47.820;1.930;2023-08-31T12:37:10;100251.56;;;19.55;97.08
33625;BME280;19962;47.820;1.930;2023-08-31T12:39:37;100246.84;;;19.56;97.00
33625;BME280;19962;47.820;1.930;2023-08-31T12:42:03;100252.69;;;19.54;97.43
33625;BME280;19962;47.820;1.930;2023-08-31T12:44:30;100257.13;;;19.55;98.09
33625;BME280;19962;47.820;1.930;2023-08-31T12:46:57;100247.72;;;19.51;98.57
33625;BME280;19962;47.820;1.930;2023-08-31T12:49:23;100247.13;;;19.54;98.67
33625;BME280;19962;47.820;1.930;2023-08-31T12:51:49;100255.72;;;19.58;98.23
33625;BME280;19962;47.820;1.930;2023-08-31T12:54:17;100254.25;;;19.65;97.72
33625;BME280;19962;47.820;1.930;2023-08-31T12:56:43;100250.75;;;19.78;97.45
33625;BME280;19962;47.820;1.930;2023-08-31T12:59:09;100241.50;;;19.83;97.78
33625;BME280;19962;47.820;1.930;2023-08-31T13:01:35;100237.88;;;19.82;98.03